CWI644 LTAI-LHBP
Flight info
| Callsign | CWI644 |
|---|---|
| Flight time | 2h 9m |
| Altitude | 34000 |
| Route | EKNUD UQ26 BKZ DCT IBLAX DCT RASUB DCT DEGET DCT KEZAL |
| Aircraft | A320/M-SDE3FGHIRWY/LB1 |
Departure
| Time | 2026-05-07 22:47 |
|---|---|
| Airport | Antalya International Airport (LTAI) |
Arrival
| Time | 2026-05-08 00:56 |
|---|---|
| Airport | Budapest Liszt Ferenc International Airport (LHBP) |
| Time | Latitude | Longitude | Altitude | Speed | Heading |
|---|---|---|---|---|---|
| 2026-05-07 22:11 | 36.91250 | 30.80066 | 191 ft | 0 kts | 97° |
| 2026-05-07 22:35 | 36.91252 | 30.80054 | 207 ft | 3 kts | 97° |
| 2026-05-07 22:35 | 36.91254 | 30.80025 | 202 ft | 3 kts | 97° |
| 2026-05-07 22:35 | 36.91257 | 30.79997 | 203 ft | 3 kts | 97° |
| 2026-05-07 22:36 | 36.91260 | 30.79969 | 201 ft | 3 kts | 97° |
| 2026-05-07 22:36 | 36.91262 | 30.79941 | 206 ft | 3 kts | 97° |
| 2026-05-07 22:36 | 36.91265 | 30.79918 | 203 ft | 3 kts | 109° |
| 2026-05-07 22:36 | 36.91275 | 30.79898 | 204 ft | 3 kts | 159° |
| 2026-05-07 22:37 | 36.91296 | 30.79894 | 199 ft | 3 kts | 185° |
| 2026-05-07 22:37 | 36.91302 | 30.79895 | 196 ft | 0 kts | 186° |
| 2026-05-07 22:38 | 36.91302 | 30.79894 | 191 ft | 0 kts | 186° |
| 2026-05-07 22:39 | 36.91299 | 30.79894 | 191 ft | 1 kts | 186° |
| 2026-05-07 22:39 | 36.91286 | 30.79892 | 200 ft | 3 kts | 186° |
| 2026-05-07 22:39 | 36.91263 | 30.79889 | 195 ft | 4 kts | 186° |
| 2026-05-07 22:39 | 36.91228 | 30.79884 | 191 ft | 6 kts | 186° |
| 2026-05-07 22:40 | 36.91181 | 30.79879 | 194 ft | 8 kts | 186° |
| 2026-05-07 22:40 | 36.91123 | 30.79871 | 195 ft | 9 kts | 186° |
| 2026-05-07 22:40 | 36.91054 | 30.79862 | 191 ft | 11 kts | 186° |
| 2026-05-07 22:40 | 36.90973 | 30.79851 | 191 ft | 13 kts | 186° |
| 2026-05-07 22:41 | 36.90900 | 30.79796 | 204 ft | 14 kts | 239° |
| 2026-05-07 22:41 | 36.90814 | 30.79740 | 202 ft | 16 kts | 187° |
| 2026-05-07 22:41 | 36.90701 | 30.79722 | 191 ft | 17 kts | 187° |
| 2026-05-07 22:41 | 36.90573 | 30.79705 | 194 ft | 19 kts | 186° |
| 2026-05-07 22:42 | 36.90465 | 30.79692 | 204 ft | 15 kts | 179° |
| 2026-05-07 22:42 | 36.90400 | 30.79782 | 191 ft | 16 kts | 102° |
| 2026-05-07 22:42 | 36.90384 | 30.79929 | 191 ft | 18 kts | 96° |
| 2026-05-07 22:42 | 36.90370 | 30.80091 | 198 ft | 20 kts | 96° |
| 2026-05-07 22:43 | 36.90354 | 30.80268 | 204 ft | 21 kts | 96° |
| 2026-05-07 22:43 | 36.90340 | 30.80445 | 206 ft | 19 kts | 96° |
| 2026-05-07 22:43 | 36.90324 | 30.80605 | 201 ft | 16 kts | 96° |
| 2026-05-07 22:43 | 36.90320 | 30.80747 | 192 ft | 16 kts | 80° |
| 2026-05-07 22:44 | 36.90416 | 30.80808 | 191 ft | 18 kts | 6° |
| 2026-05-07 22:44 | 36.90545 | 30.80826 | 199 ft | 20 kts | 6° |
| 2026-05-07 22:44 | 36.90687 | 30.80844 | 196 ft | 21 kts | 6° |
| 2026-05-07 22:44 | 36.90825 | 30.80862 | 191 ft | 19 kts | 6° |
| 2026-05-07 22:45 | 36.90938 | 30.80879 | 198 ft | 11 kts | 8° |
| 2026-05-07 22:45 | 36.90986 | 30.80946 | 200 ft | 13 kts | 89° |
| 2026-05-07 22:45 | 36.90979 | 30.81038 | 193 ft | 11 kts | 96° |
| 2026-05-07 22:45 | 36.90941 | 30.81113 | 196 ft | 11 kts | 170° |
| 2026-05-07 22:46 | 36.90807 | 30.81096 | 191 ft | 41 kts | 187° |
| 2026-05-07 22:46 | 36.90293 | 30.81026 | 196 ft | 104 kts | 186° |
| 2026-05-07 22:46 | 36.89402 | 30.80901 | 189 ft | 151 kts | 186° |
| 2026-05-07 22:46 | 36.88241 | 30.80751 | 368 ft | 176 kts | 185° |
| 2026-05-07 22:47 | 36.87025 | 30.80716 | 1023 ft | 175 kts | 176° |
| 2026-05-07 22:47 | 36.85813 | 30.80935 | 1588 ft | 178 kts | 165° |
| 2026-05-07 22:47 | 36.84610 | 30.81397 | 2068 ft | 185 kts | 164° |
| 2026-05-07 22:47 | 36.83283 | 30.81747 | 2296 ft | 206 kts | 171° |
| 2026-05-07 22:48 | 36.81794 | 30.82021 | 2577 ft | 224 kts | 172° |
| 2026-05-07 22:48 | 36.80233 | 30.82290 | 3205 ft | 228 kts | 169° |
| 2026-05-07 22:48 | 36.78706 | 30.82955 | 3719 ft | 243 kts | 155° |
| 2026-05-07 22:48 | 36.77098 | 30.83887 | 4068 ft | 266 kts | 154° |
| 2026-05-07 22:49 | 36.75431 | 30.84977 | 4717 ft | 274 kts | 143° |
| 2026-05-07 22:49 | 36.74166 | 30.86747 | 5466 ft | 276 kts | 116° |
| 2026-05-07 22:49 | 36.73638 | 30.89028 | 6259 ft | 276 kts | 94° |
| 2026-05-07 22:49 | 36.73452 | 30.91411 | 7067 ft | 277 kts | 94° |
| 2026-05-07 22:50 | 36.73330 | 30.93002 | 7592 ft | 279 kts | 94° |
| 2026-05-07 22:50 | 36.73141 | 30.95420 | 8362 ft | 282 kts | 94° |
| 2026-05-07 22:50 | 36.72949 | 30.97865 | 9109 ft | 285 kts | 94° |
| 2026-05-07 22:50 | 36.72752 | 31.00339 | 9866 ft | 288 kts | 94° |
| 2026-05-07 22:51 | 36.72551 | 31.02838 | 10539 ft | 292 kts | 94° |
| 2026-05-07 22:51 | 36.72365 | 31.05417 | 10896 ft | 308 kts | 89° |
| 2026-05-07 22:51 | 36.72721 | 31.08124 | 11035 ft | 327 kts | 66° |
| 2026-05-07 22:51 | 36.73959 | 31.10565 | 11154 ft | 344 kts | 44° |
| 2026-05-07 22:52 | 36.75971 | 31.12245 | 11287 ft | 359 kts | 19° |
| 2026-05-07 22:52 | 36.78457 | 31.12863 | 11596 ft | 369 kts | 5° |
| 2026-05-07 22:52 | 36.81011 | 31.13211 | 12196 ft | 371 kts | 4° |
| 2026-05-07 22:52 | 36.83596 | 31.13141 | 12764 ft | 373 kts | 351° |
| 2026-05-07 22:53 | 36.86119 | 31.12364 | 13334 ft | 375 kts | 339° |
| 2026-05-07 22:53 | 36.88459 | 31.10913 | 13910 ft | 377 kts | 326° |
| 2026-05-07 22:53 | 36.90561 | 31.08941 | 14420 ft | 379 kts | 321° |
| 2026-05-07 22:53 | 36.92644 | 31.06905 | 14964 ft | 381 kts | 322° |
| 2026-05-07 22:54 | 36.94715 | 31.04887 | 15471 ft | 383 kts | 322° |
| 2026-05-07 22:54 | 36.96845 | 31.02815 | 15988 ft | 385 kts | 322° |
| 2026-05-07 22:54 | 36.98939 | 31.00778 | 16495 ft | 387 kts | 322° |
| 2026-05-07 22:54 | 37.01069 | 30.98706 | 17029 ft | 389 kts | 322° |
| 2026-05-07 22:55 | 37.03204 | 30.96625 | 17539 ft | 391 kts | 322° |
| 2026-05-07 22:55 | 37.05358 | 30.94521 | 18083 ft | 393 kts | 321° |
| 2026-05-07 22:55 | 37.07515 | 30.92409 | 18596 ft | 394 kts | 321° |
| 2026-05-07 22:55 | 37.09682 | 30.90282 | 19042 ft | 397 kts | 321° |
| 2026-05-07 22:56 | 37.11862 | 30.88139 | 19472 ft | 400 kts | 321° |
| 2026-05-07 22:56 | 37.14058 | 30.85981 | 19882 ft | 403 kts | 321° |
| 2026-05-07 22:56 | 37.16272 | 30.83808 | 20309 ft | 406 kts | 321° |
| 2026-05-07 22:56 | 37.18497 | 30.81621 | 20717 ft | 408 kts | 321° |
| 2026-05-07 22:57 | 37.20739 | 30.79412 | 21113 ft | 411 kts | 321° |
| 2026-05-07 22:57 | 37.22995 | 30.77185 | 21480 ft | 414 kts | 321° |
| 2026-05-07 22:57 | 37.25291 | 30.74989 | 21835 ft | 417 kts | 325° |
| 2026-05-07 22:57 | 37.27841 | 30.73209 | 22197 ft | 421 kts | 335° |
| 2026-05-07 22:58 | 37.30622 | 30.72008 | 22532 ft | 426 kts | 345° |
| 2026-05-07 22:58 | 37.33554 | 30.71369 | 22866 ft | 429 kts | 349° |
| 2026-05-07 22:58 | 37.36518 | 30.70827 | 23223 ft | 432 kts | 349° |
| 2026-05-07 22:58 | 37.39500 | 30.70285 | 23554 ft | 434 kts | 351° |
| 2026-05-07 22:59 | 37.42530 | 30.70017 | 23861 ft | 438 kts | 355° |
| 2026-05-07 22:59 | 37.45582 | 30.69811 | 24175 ft | 440 kts | 355° |
| 2026-05-07 22:59 | 37.48637 | 30.69605 | 24581 ft | 438 kts | 355° |
| 2026-05-07 22:59 | 37.51677 | 30.69400 | 25009 ft | 437 kts | 355° |
| 2026-05-07 23:00 | 37.54709 | 30.69196 | 25448 ft | 435 kts | 355° |
| 2026-05-07 23:00 | 37.57730 | 30.68994 | 25899 ft | 434 kts | 354° |
| 2026-05-07 23:00 | 37.60737 | 30.68798 | 26366 ft | 432 kts | 355° |
| 2026-05-07 23:00 | 37.63741 | 30.68608 | 26770 ft | 432 kts | 355° |
| 2026-05-07 23:01 | 37.66701 | 30.68424 | 27185 ft | 431 kts | 355° |
| 2026-05-07 23:01 | 37.69696 | 30.68240 | 27636 ft | 430 kts | 355° |
| 2026-05-07 23:01 | 37.72680 | 30.68058 | 28113 ft | 429 kts | 355° |
| 2026-05-07 23:01 | 37.75654 | 30.67873 | 28597 ft | 427 kts | 355° |
| 2026-05-07 23:02 | 37.78618 | 30.67687 | 29070 ft | 426 kts | 355° |
| 2026-05-07 23:02 | 37.81573 | 30.67502 | 29537 ft | 424 kts | 355° |
| 2026-05-07 23:02 | 37.84522 | 30.67318 | 30021 ft | 423 kts | 355° |
| 2026-05-07 23:02 | 37.87461 | 30.67390 | 30465 ft | 424 kts | 4° |
| 2026-05-07 23:03 | 37.90373 | 30.68088 | 30859 ft | 427 kts | 13° |
| 2026-05-07 23:03 | 37.93159 | 30.69404 | 31250 ft | 429 kts | 21° |
| 2026-05-07 23:03 | 37.95858 | 30.70993 | 31639 ft | 428 kts | 21° |
| 2026-05-07 23:03 | 37.98555 | 30.72582 | 32050 ft | 427 kts | 21° |
| 2026-05-07 23:04 | 38.01244 | 30.74163 | 32470 ft | 425 kts | 21° |
| 2026-05-07 23:04 | 38.03930 | 30.75739 | 32872 ft | 424 kts | 21° |
| 2026-05-07 23:04 | 38.06607 | 30.77305 | 33268 ft | 423 kts | 21° |
| 2026-05-07 23:04 | 38.09255 | 30.78820 | 33677 ft | 420 kts | 17° |
| 2026-05-07 23:05 | 38.12023 | 30.79895 | 34072 ft | 415 kts | 8° |
| 2026-05-07 23:05 | 38.14867 | 30.80384 | 34235 ft | 411 kts | 359° |
| 2026-05-07 23:05 | 38.17734 | 30.80258 | 34257 ft | 414 kts | 349° |
| 2026-05-07 23:06 | 38.23540 | 30.79271 | 34258 ft | 426 kts | 349° |
| 2026-05-07 23:06 | 38.29434 | 30.78295 | 34260 ft | 428 kts | 350° |
| 2026-05-07 23:07 | 38.35335 | 30.77334 | 34257 ft | 426 kts | 350° |
| 2026-05-07 23:07 | 38.41208 | 30.76369 | 34258 ft | 425 kts | 350° |
| 2026-05-07 23:08 | 38.47065 | 30.75393 | 34259 ft | 425 kts | 349° |
| 2026-05-07 23:08 | 38.52933 | 30.74414 | 34258 ft | 425 kts | 350° |
| 2026-05-07 23:09 | 38.58799 | 30.73441 | 34257 ft | 425 kts | 350° |
| 2026-05-07 23:09 | 38.64667 | 30.72463 | 34258 ft | 425 kts | 349° |
| 2026-05-07 23:10 | 38.70540 | 30.71483 | 34262 ft | 426 kts | 350° |
| 2026-05-07 23:10 | 38.76381 | 30.70512 | 34282 ft | 426 kts | 350° |
| 2026-05-07 23:11 | 38.82306 | 30.69516 | 34264 ft | 427 kts | 348° |
| 2026-05-07 23:11 | 38.87920 | 30.67266 | 34243 ft | 423 kts | 332° |
| 2026-05-07 23:12 | 38.93134 | 30.63857 | 34238 ft | 424 kts | 332° |
| 2026-05-07 23:12 | 38.98403 | 30.60445 | 34256 ft | 424 kts | 332° |
| 2026-05-07 23:13 | 39.03671 | 30.57026 | 34246 ft | 424 kts | 332° |
| 2026-05-07 23:13 | 39.08926 | 30.53590 | 34264 ft | 424 kts | 331° |
| 2026-05-07 23:14 | 39.14180 | 30.50138 | 34253 ft | 424 kts | 331° |
| 2026-05-07 23:14 | 39.19434 | 30.46696 | 34261 ft | 424 kts | 332° |
| 2026-05-07 23:15 | 39.24694 | 30.43250 | 34249 ft | 424 kts | 332° |
| 2026-05-07 23:15 | 39.29917 | 30.39816 | 34260 ft | 424 kts | 331° |
| 2026-05-07 23:16 | 39.35211 | 30.36318 | 34237 ft | 425 kts | 331° |
| 2026-05-07 23:16 | 39.40479 | 30.32839 | 34235 ft | 426 kts | 331° |
| 2026-05-07 23:17 | 39.45765 | 30.29347 | 34241 ft | 427 kts | 331° |
| 2026-05-07 23:17 | 39.51074 | 30.25889 | 34247 ft | 428 kts | 333° |
| 2026-05-07 23:18 | 39.56558 | 30.22859 | 34241 ft | 429 kts | 336° |
| 2026-05-07 23:18 | 39.62114 | 30.20043 | 34250 ft | 429 kts | 336° |
| 2026-05-07 23:19 | 39.67662 | 30.17174 | 34246 ft | 429 kts | 336° |
| 2026-05-07 23:19 | 39.73181 | 30.14218 | 34243 ft | 429 kts | 335° |
| 2026-05-07 23:20 | 39.78690 | 30.11234 | 34229 ft | 429 kts | 335° |
| 2026-05-07 23:20 | 39.84210 | 30.08259 | 34218 ft | 430 kts | 335° |
| 2026-05-07 23:21 | 39.89701 | 30.05305 | 34203 ft | 431 kts | 336° |
| 2026-05-07 23:21 | 39.95248 | 30.02324 | 34218 ft | 431 kts | 336° |
| 2026-05-07 23:22 | 40.00792 | 29.99335 | 34208 ft | 431 kts | 335° |
| 2026-05-07 23:22 | 40.06331 | 29.96338 | 34199 ft | 431 kts | 335° |
| 2026-05-07 23:23 | 40.11863 | 29.93335 | 34195 ft | 431 kts | 335° |
| 2026-05-07 23:23 | 40.17403 | 29.90327 | 34196 ft | 431 kts | 335° |
| 2026-05-07 23:24 | 40.22940 | 29.87318 | 34186 ft | 431 kts | 335° |
| 2026-05-07 23:24 | 40.28472 | 29.84305 | 34184 ft | 431 kts | 335° |
| 2026-05-07 23:25 | 40.33999 | 29.81293 | 34162 ft | 431 kts | 335° |
| 2026-05-07 23:25 | 40.39541 | 29.78266 | 34166 ft | 432 kts | 335° |
| 2026-05-07 23:26 | 40.45057 | 29.75247 | 34165 ft | 432 kts | 335° |
| 2026-05-07 23:26 | 40.50615 | 29.72198 | 34164 ft | 433 kts | 335° |
| 2026-05-07 23:27 | 40.58942 | 29.67606 | 34152 ft | 433 kts | 335° |
| 2026-05-07 23:27 | 40.64492 | 29.64521 | 34160 ft | 432 kts | 332° |
| 2026-05-07 23:28 | 40.69462 | 29.60173 | 34158 ft | 429 kts | 320° |
| 2026-05-07 23:28 | 40.74123 | 29.55255 | 34146 ft | 429 kts | 320° |
| 2026-05-07 23:29 | 40.78787 | 29.50332 | 34130 ft | 430 kts | 320° |
| 2026-05-07 23:29 | 40.83462 | 29.45394 | 34124 ft | 431 kts | 320° |
| 2026-05-07 23:30 | 40.88147 | 29.40444 | 34127 ft | 432 kts | 320° |
| 2026-05-07 23:30 | 40.92804 | 29.35509 | 34130 ft | 432 kts | 320° |
| 2026-05-07 23:31 | 40.97493 | 29.30521 | 34135 ft | 432 kts | 320° |
| 2026-05-07 23:31 | 41.02173 | 29.25526 | 34136 ft | 432 kts | 320° |
| 2026-05-07 23:32 | 41.06861 | 29.20522 | 34121 ft | 434 kts | 320° |
| 2026-05-07 23:32 | 41.11575 | 29.15500 | 34115 ft | 435 kts | 319° |
| 2026-05-07 23:33 | 41.16349 | 29.10551 | 34114 ft | 436 kts | 321° |
| 2026-05-07 23:33 | 41.21241 | 29.05781 | 34102 ft | 436 kts | 322° |
| 2026-05-07 23:34 | 41.26149 | 29.01021 | 34103 ft | 437 kts | 322° |
| 2026-05-07 23:34 | 41.31034 | 28.96201 | 34096 ft | 438 kts | 321° |
| 2026-05-07 23:35 | 41.35883 | 28.91377 | 34096 ft | 438 kts | 321° |
| 2026-05-07 23:35 | 41.40766 | 28.86514 | 34112 ft | 439 kts | 321° |
| 2026-05-07 23:36 | 41.45658 | 28.81644 | 34107 ft | 439 kts | 321° |
| 2026-05-07 23:36 | 41.50432 | 28.76882 | 34098 ft | 440 kts | 321° |
| 2026-05-07 23:37 | 41.55328 | 28.71981 | 34098 ft | 440 kts | 321° |
| 2026-05-07 23:37 | 41.60231 | 28.67074 | 34103 ft | 440 kts | 321° |
| 2026-05-07 23:38 | 41.65135 | 28.62152 | 34099 ft | 441 kts | 321° |
| 2026-05-07 23:38 | 41.69219 | 28.58044 | 34099 ft | 442 kts | 321° |
| 2026-05-07 23:39 | 41.74130 | 28.53099 | 34099 ft | 442 kts | 321° |
| 2026-05-07 23:39 | 41.79038 | 28.48140 | 34100 ft | 442 kts | 321° |
| 2026-05-07 23:40 | 41.84744 | 28.42357 | 34099 ft | 443 kts | 321° |
| 2026-05-07 23:40 | 41.88864 | 28.38185 | 34098 ft | 443 kts | 321° |
| 2026-05-07 23:41 | 41.93784 | 28.33201 | 34105 ft | 443 kts | 321° |
| 2026-05-07 23:41 | 41.98609 | 28.28139 | 34110 ft | 442 kts | 315° |
| 2026-05-07 23:42 | 42.02926 | 28.22271 | 34105 ft | 441 kts | 312° |
| 2026-05-07 23:42 | 42.07222 | 28.16376 | 34104 ft | 441 kts | 312° |
| 2026-05-07 23:43 | 42.11525 | 28.10471 | 34099 ft | 441 kts | 312° |
| 2026-05-07 23:43 | 42.15821 | 28.04563 | 34094 ft | 441 kts | 312° |
| 2026-05-07 23:44 | 42.20107 | 27.98634 | 34099 ft | 442 kts | 312° |
| 2026-05-07 23:44 | 42.24402 | 27.92686 | 34110 ft | 442 kts | 312° |
| 2026-05-07 23:45 | 42.28697 | 27.86744 | 34107 ft | 442 kts | 312° |
| 2026-05-07 23:45 | 42.32963 | 27.80838 | 34103 ft | 442 kts | 312° |
| 2026-05-07 23:46 | 42.37253 | 27.74866 | 34092 ft | 443 kts | 312° |
| 2026-05-07 23:46 | 42.41538 | 27.68879 | 34100 ft | 443 kts | 312° |
| 2026-05-07 23:47 | 42.45829 | 27.62873 | 34104 ft | 443 kts | 312° |
| 2026-05-07 23:47 | 42.50120 | 27.56867 | 34111 ft | 443 kts | 312° |
| 2026-05-07 23:48 | 42.54413 | 27.50863 | 34117 ft | 444 kts | 312° |
| 2026-05-07 23:48 | 42.58702 | 27.44835 | 34102 ft | 444 kts | 311° |
| 2026-05-07 23:49 | 42.62986 | 27.38787 | 34109 ft | 444 kts | 311° |
| 2026-05-07 23:49 | 42.67245 | 27.32769 | 34106 ft | 445 kts | 311° |
| 2026-05-07 23:50 | 42.71529 | 27.26712 | 34104 ft | 445 kts | 311° |
| 2026-05-07 23:50 | 42.75815 | 27.20641 | 34105 ft | 445 kts | 311° |
| 2026-05-07 23:51 | 42.80095 | 27.14559 | 34113 ft | 445 kts | 311° |
| 2026-05-07 23:51 | 42.84368 | 27.08480 | 34116 ft | 444 kts | 311° |
| 2026-05-07 23:52 | 42.88638 | 27.02378 | 34102 ft | 445 kts | 311° |
| 2026-05-07 23:52 | 42.92917 | 26.96264 | 34098 ft | 445 kts | 311° |
| 2026-05-07 23:53 | 42.97193 | 26.90135 | 34103 ft | 446 kts | 311° |
| 2026-05-07 23:53 | 43.01463 | 26.84006 | 34103 ft | 446 kts | 311° |
| 2026-05-07 23:54 | 43.05732 | 26.77858 | 34100 ft | 446 kts | 311° |
| 2026-05-07 23:54 | 43.09996 | 26.71704 | 34101 ft | 445 kts | 311° |
| 2026-05-07 23:55 | 43.14249 | 26.65560 | 34132 ft | 444 kts | 311° |
| 2026-05-07 23:55 | 43.18452 | 26.59470 | 34094 ft | 442 kts | 311° |
| 2026-05-07 23:56 | 43.22677 | 26.53325 | 34076 ft | 443 kts | 311° |
| 2026-05-07 23:56 | 43.26910 | 26.47167 | 34075 ft | 444 kts | 311° |
| 2026-05-07 23:57 | 43.31146 | 26.40989 | 34104 ft | 442 kts | 311° |
| 2026-05-07 23:57 | 43.35347 | 26.34853 | 34107 ft | 439 kts | 311° |
| 2026-05-07 23:58 | 43.39523 | 26.28748 | 34102 ft | 437 kts | 311° |
| 2026-05-07 23:58 | 43.43672 | 26.22654 | 34099 ft | 436 kts | 311° |
| 2026-05-07 23:59 | 43.47810 | 26.16562 | 34103 ft | 435 kts | 310° |
| 2026-05-07 23:59 | 43.51947 | 26.10466 | 34084 ft | 436 kts | 310° |
| 2026-05-08 00:00 | 43.56086 | 26.04352 | 34065 ft | 436 kts | 310° |
| 2026-05-08 00:00 | 43.60226 | 25.98216 | 34059 ft | 437 kts | 310° |
| 2026-05-08 00:01 | 43.64364 | 25.92084 | 34055 ft | 437 kts | 310° |
| 2026-05-08 00:01 | 43.68477 | 25.85968 | 34055 ft | 437 kts | 310° |
| 2026-05-08 00:02 | 43.72609 | 25.79808 | 34053 ft | 437 kts | 310° |
| 2026-05-08 00:02 | 43.76744 | 25.73637 | 34051 ft | 437 kts | 310° |
| 2026-05-08 00:03 | 43.80868 | 25.67465 | 34066 ft | 436 kts | 310° |
| 2026-05-08 00:03 | 43.84979 | 25.61299 | 34071 ft | 435 kts | 310° |
| 2026-05-08 00:04 | 43.89081 | 25.55139 | 34067 ft | 434 kts | 310° |
| 2026-05-08 00:04 | 43.93171 | 25.48969 | 34063 ft | 434 kts | 310° |
| 2026-05-08 00:05 | 43.97246 | 25.42808 | 34071 ft | 433 kts | 310° |
| 2026-05-08 00:05 | 44.01298 | 25.36646 | 34067 ft | 432 kts | 310° |
| 2026-05-08 00:06 | 44.05318 | 25.30455 | 34070 ft | 431 kts | 309° |
| 2026-05-08 00:06 | 44.09322 | 25.24261 | 34068 ft | 431 kts | 309° |
| 2026-05-08 00:07 | 44.13328 | 25.18060 | 34064 ft | 431 kts | 309° |
| 2026-05-08 00:07 | 44.17334 | 25.11852 | 34060 ft | 431 kts | 309° |
| 2026-05-08 00:08 | 44.21332 | 25.05639 | 34057 ft | 431 kts | 309° |
| 2026-05-08 00:08 | 44.25336 | 24.99413 | 34064 ft | 431 kts | 309° |
| 2026-05-08 00:09 | 44.29313 | 24.93220 | 34066 ft | 431 kts | 309° |
| 2026-05-08 00:09 | 44.33310 | 24.86965 | 34065 ft | 432 kts | 309° |
| 2026-05-08 00:10 | 44.37311 | 24.80693 | 34068 ft | 432 kts | 309° |
| 2026-05-08 00:10 | 44.41303 | 24.74420 | 34069 ft | 432 kts | 308° |
| 2026-05-08 00:11 | 44.45297 | 24.68131 | 34078 ft | 432 kts | 308° |
| 2026-05-08 00:11 | 44.49297 | 24.61827 | 34072 ft | 433 kts | 308° |
| 2026-05-08 00:12 | 44.53292 | 24.55512 | 34078 ft | 434 kts | 308° |
| 2026-05-08 00:12 | 44.57292 | 24.49180 | 34079 ft | 434 kts | 308° |
| 2026-05-08 00:13 | 44.61291 | 24.42835 | 34086 ft | 434 kts | 308° |
| 2026-05-08 00:13 | 44.65285 | 24.36485 | 34091 ft | 433 kts | 308° |
| 2026-05-08 00:14 | 44.69270 | 24.30130 | 34090 ft | 433 kts | 308° |
| 2026-05-08 00:14 | 44.73219 | 24.23815 | 34087 ft | 433 kts | 308° |
| 2026-05-08 00:15 | 44.77192 | 24.17466 | 34099 ft | 433 kts | 308° |
| 2026-05-08 00:15 | 44.81159 | 24.11095 | 34096 ft | 432 kts | 307° |
| 2026-05-08 00:16 | 44.85106 | 24.04732 | 34094 ft | 431 kts | 307° |
| 2026-05-08 00:16 | 44.89052 | 23.98367 | 34097 ft | 431 kts | 307° |
| 2026-05-08 00:17 | 44.92995 | 23.91996 | 34108 ft | 431 kts | 307° |
| 2026-05-08 00:17 | 44.96937 | 23.85606 | 34104 ft | 431 kts | 307° |
| 2026-05-08 00:18 | 45.00868 | 23.79224 | 34106 ft | 431 kts | 307° |
| 2026-05-08 00:18 | 45.04795 | 23.72837 | 34106 ft | 430 kts | 307° |
| 2026-05-08 00:19 | 45.08723 | 23.66432 | 34106 ft | 430 kts | 307° |
| 2026-05-08 00:19 | 45.12641 | 23.60025 | 34098 ft | 431 kts | 307° |
| 2026-05-08 00:20 | 45.16562 | 23.53596 | 34090 ft | 432 kts | 307° |
| 2026-05-08 00:20 | 45.20491 | 23.47145 | 34084 ft | 432 kts | 307° |
| 2026-05-08 00:21 | 45.24398 | 23.40724 | 34089 ft | 433 kts | 307° |
| 2026-05-08 00:21 | 45.28315 | 23.34245 | 34068 ft | 432 kts | 306° |
| 2026-05-08 00:22 | 45.32237 | 23.27744 | 34092 ft | 433 kts | 306° |
| 2026-05-08 00:22 | 45.36165 | 23.21235 | 34095 ft | 434 kts | 306° |
| 2026-05-08 00:23 | 45.40095 | 23.14715 | 34095 ft | 433 kts | 306° |
| 2026-05-08 00:23 | 45.44013 | 23.08198 | 34104 ft | 434 kts | 306° |
| 2026-05-08 00:24 | 45.47940 | 23.01643 | 34081 ft | 435 kts | 306° |
| 2026-05-08 00:24 | 45.51864 | 22.95074 | 34080 ft | 435 kts | 306° |
| 2026-05-08 00:25 | 45.55788 | 22.88489 | 34082 ft | 436 kts | 306° |
| 2026-05-08 00:25 | 45.59708 | 22.81895 | 34111 ft | 435 kts | 306° |
| 2026-05-08 00:26 | 45.63617 | 22.75303 | 34094 ft | 435 kts | 306° |
| 2026-05-08 00:26 | 45.67524 | 22.68709 | 34079 ft | 435 kts | 306° |
| 2026-05-08 00:27 | 45.71429 | 22.62106 | 34079 ft | 434 kts | 306° |
| 2026-05-08 00:27 | 45.75301 | 22.55537 | 34074 ft | 435 kts | 306° |
| 2026-05-08 00:28 | 45.79203 | 22.48894 | 34071 ft | 436 kts | 305° |
| 2026-05-08 00:28 | 45.83109 | 22.42232 | 34058 ft | 437 kts | 305° |
| 2026-05-08 00:29 | 45.87024 | 22.35539 | 34056 ft | 438 kts | 305° |
| 2026-05-08 00:29 | 45.90940 | 22.28827 | 34052 ft | 439 kts | 305° |
| 2026-05-08 00:30 | 45.94852 | 22.22098 | 34067 ft | 439 kts | 305° |
| 2026-05-08 00:30 | 45.98113 | 22.16493 | 34054 ft | 440 kts | 305° |
| 2026-05-08 00:31 | 46.02026 | 22.09741 | 34051 ft | 440 kts | 305° |
| 2026-05-08 00:31 | 46.06596 | 22.01849 | 34058 ft | 441 kts | 305° |
| 2026-05-08 00:32 | 46.09887 | 21.96165 | 34069 ft | 442 kts | 305° |
| 2026-05-08 00:32 | 46.13818 | 21.89335 | 34038 ft | 443 kts | 305° |
| 2026-05-08 00:33 | 46.17711 | 21.82507 | 34036 ft | 444 kts | 305° |
| 2026-05-08 00:33 | 46.21640 | 21.75621 | 34039 ft | 444 kts | 305° |
| 2026-05-08 00:34 | 46.25580 | 21.68731 | 34040 ft | 445 kts | 305° |
| 2026-05-08 00:34 | 46.29521 | 21.61830 | 34065 ft | 445 kts | 304° |
| 2026-05-08 00:35 | 46.33456 | 21.54909 | 34063 ft | 445 kts | 304° |
| 2026-05-08 00:35 | 46.37385 | 21.47974 | 34061 ft | 445 kts | 304° |
| 2026-05-08 00:36 | 46.41308 | 21.41026 | 34057 ft | 446 kts | 304° |
| 2026-05-08 00:36 | 46.45241 | 21.34059 | 34069 ft | 447 kts | 304° |
| 2026-05-08 00:37 | 46.49157 | 21.27065 | 34068 ft | 445 kts | 301° |
| 2026-05-08 00:38 | 46.54172 | 21.15825 | 33729 ft | 442 kts | 297° |
| 2026-05-08 00:38 | 46.55809 | 21.12099 | 33460 ft | 442 kts | 297° |
| 2026-05-08 00:38 | 46.57484 | 21.08286 | 33187 ft | 443 kts | 298° |
| 2026-05-08 00:38 | 46.59121 | 21.04561 | 32911 ft | 443 kts | 297° |
| 2026-05-08 00:39 | 46.60787 | 21.00767 | 31984 ft | 447 kts | 297° |
| 2026-05-08 00:39 | 46.62464 | 20.96938 | 31100 ft | 450 kts | 297° |
| 2026-05-08 00:39 | 46.64148 | 20.93089 | 30232 ft | 452 kts | 298° |
| 2026-05-08 00:39 | 46.65840 | 20.89214 | 29156 ft | 456 kts | 298° |
| 2026-05-08 00:40 | 46.67542 | 20.85307 | 28113 ft | 458 kts | 298° |
| 2026-05-08 00:40 | 46.69247 | 20.81383 | 27076 ft | 459 kts | 298° |
| 2026-05-08 00:40 | 46.70961 | 20.77432 | 25899 ft | 464 kts | 298° |
| 2026-05-08 00:40 | 46.72694 | 20.73436 | 24704 ft | 468 kts | 298° |
| 2026-05-08 00:41 | 46.74440 | 20.69406 | 23633 ft | 471 kts | 298° |
| 2026-05-08 00:41 | 46.76168 | 20.65417 | 22893 ft | 462 kts | 298° |
| 2026-05-08 00:41 | 46.77877 | 20.61478 | 21908 ft | 457 kts | 298° |
| 2026-05-08 00:41 | 46.79569 | 20.57573 | 20938 ft | 452 kts | 298° |
| 2026-05-08 00:42 | 46.81240 | 20.53692 | 20049 ft | 448 kts | 298° |
| 2026-05-08 00:42 | 46.82889 | 20.49853 | 19137 ft | 445 kts | 298° |
| 2026-05-08 00:42 | 46.84521 | 20.46061 | 18318 ft | 440 kts | 298° |
| 2026-05-08 00:42 | 46.86142 | 20.42292 | 17500 ft | 433 kts | 298° |
| 2026-05-08 00:43 | 46.87733 | 20.38596 | 16480 ft | 425 kts | 298° |
| 2026-05-08 00:43 | 46.89290 | 20.34964 | 15675 ft | 419 kts | 298° |
| 2026-05-08 00:43 | 46.90825 | 20.31364 | 14892 ft | 414 kts | 298° |
| 2026-05-08 00:43 | 46.92338 | 20.27803 | 14138 ft | 410 kts | 298° |
| 2026-05-08 00:44 | 46.93836 | 20.24276 | 13367 ft | 406 kts | 298° |
| 2026-05-08 00:44 | 46.95317 | 20.20788 | 12659 ft | 400 kts | 298° |
| 2026-05-08 00:44 | 46.96774 | 20.17349 | 11981 ft | 394 kts | 298° |
| 2026-05-08 00:44 | 46.98211 | 20.13966 | 11385 ft | 387 kts | 299° |
| 2026-05-08 00:45 | 46.99600 | 20.10702 | 11243 ft | 368 kts | 299° |
| 2026-05-08 00:45 | 47.00915 | 20.07615 | 11116 ft | 344 kts | 298° |
| 2026-05-08 00:45 | 47.02110 | 20.04806 | 10991 ft | 316 kts | 298° |
| 2026-05-08 00:45 | 47.03228 | 20.02173 | 10838 ft | 293 kts | 298° |
| 2026-05-08 00:46 | 47.04284 | 19.99677 | 10427 ft | 285 kts | 298° |
| 2026-05-08 00:46 | 47.05315 | 19.97228 | 10188 ft | 281 kts | 298° |
| 2026-05-08 00:46 | 47.06334 | 19.94797 | 9952 ft | 278 kts | 298° |
| 2026-05-08 00:46 | 47.07345 | 19.92382 | 9820 ft | 278 kts | 298° |
| 2026-05-08 00:47 | 47.08356 | 19.89969 | 9682 ft | 278 kts | 298° |
| 2026-05-08 00:47 | 47.09368 | 19.87554 | 9551 ft | 277 kts | 298° |
| 2026-05-08 00:47 | 47.10379 | 19.85148 | 9418 ft | 277 kts | 298° |
| 2026-05-08 00:47 | 47.11387 | 19.82748 | 9282 ft | 276 kts | 298° |
| 2026-05-08 00:48 | 47.12392 | 19.80348 | 9129 ft | 276 kts | 298° |
| 2026-05-08 00:48 | 47.13403 | 19.77932 | 8703 ft | 279 kts | 299° |
| 2026-05-08 00:48 | 47.14416 | 19.75512 | 8384 ft | 277 kts | 299° |
| 2026-05-08 00:48 | 47.15432 | 19.73083 | 7992 ft | 277 kts | 300° |
| 2026-05-08 00:49 | 47.16484 | 19.70751 | 7570 ft | 272 kts | 307° |
| 2026-05-08 00:49 | 47.17760 | 19.68694 | 6962 ft | 272 kts | 311° |
| 2026-05-08 00:49 | 47.19039 | 19.66659 | 6422 ft | 269 kts | 310° |
| 2026-05-08 00:49 | 47.20266 | 19.64690 | 6190 ft | 253 kts | 311° |
| 2026-05-08 00:50 | 47.21442 | 19.62813 | 5838 ft | 248 kts | 311° |
| 2026-05-08 00:50 | 47.22633 | 19.60912 | 5712 ft | 260 kts | 311° |
| 2026-05-08 00:50 | 47.23835 | 19.58997 | 5600 ft | 253 kts | 311° |
| 2026-05-08 00:50 | 47.25012 | 19.57120 | 5373 ft | 249 kts | 311° |
| 2026-05-08 00:51 | 47.26184 | 19.55247 | 5077 ft | 248 kts | 311° |
| 2026-05-08 00:51 | 47.27352 | 19.53380 | 4741 ft | 248 kts | 312° |
| 2026-05-08 00:51 | 47.28503 | 19.51541 | 4405 ft | 240 kts | 312° |
| 2026-05-08 00:51 | 47.29609 | 19.49770 | 4097 ft | 230 kts | 312° |
| 2026-05-08 00:52 | 47.30673 | 19.48068 | 3802 ft | 220 kts | 312° |
| 2026-05-08 00:52 | 47.31690 | 19.46438 | 3506 ft | 212 kts | 312° |
| 2026-05-08 00:52 | 47.32667 | 19.44871 | 3229 ft | 203 kts | 312° |
| 2026-05-08 00:52 | 47.33603 | 19.43369 | 2980 ft | 195 kts | 312° |
| 2026-05-08 00:53 | 47.34491 | 19.41946 | 2708 ft | 181 kts | 312° |
| 2026-05-08 00:53 | 47.35313 | 19.40625 | 2470 ft | 169 kts | 312° |
| 2026-05-08 00:53 | 47.36076 | 19.39399 | 2263 ft | 153 kts | 311° |
| 2026-05-08 00:53 | 47.36768 | 19.38286 | 2061 ft | 143 kts | 311° |
| 2026-05-08 00:54 | 47.37432 | 19.37220 | 1865 ft | 140 kts | 311° |
| 2026-05-08 00:54 | 47.38086 | 19.36167 | 1688 ft | 139 kts | 311° |
| 2026-05-08 00:54 | 47.38736 | 19.35120 | 1483 ft | 138 kts | 311° |
| 2026-05-08 00:54 | 47.39386 | 19.34074 | 1298 ft | 138 kts | 311° |
| 2026-05-08 00:55 | 47.40029 | 19.33039 | 1109 ft | 139 kts | 312° |
| 2026-05-08 00:55 | 47.40689 | 19.31968 | 919 ft | 140 kts | 312° |
| 2026-05-08 00:55 | 47.41338 | 19.30921 | 761 ft | 140 kts | 313° |
| 2026-05-08 00:55 | 47.42000 | 19.29865 | 571 ft | 140 kts | 312° |
| 2026-05-08 00:56 | 47.42654 | 19.28808 | 462 ft | 137 kts | 313° |
| 2026-05-08 00:56 | 47.43206 | 19.27921 | 462 ft | 96 kts | 313° |
| 2026-05-08 00:56 | 47.43540 | 19.27386 | 472 ft | 39 kts | 313° |
| 2026-05-08 00:56 | 47.43687 | 19.27123 | 474 ft | 30 kts | 301° |
| 2026-05-08 00:57 | 47.43749 | 19.26896 | 468 ft | 23 kts | 285° |
| 2026-05-08 00:57 | 47.43777 | 19.26674 | 459 ft | 15 kts | 282° |
| 2026-05-08 00:57 | 47.43797 | 19.26535 | 459 ft | 13 kts | 278° |
| 2026-05-08 00:57 | 47.43746 | 19.26412 | 456 ft | 16 kts | 223° |
| 2026-05-08 00:58 | 47.43656 | 19.26289 | 457 ft | 19 kts | 222° |
| 2026-05-08 00:58 | 47.43575 | 19.26181 | 457 ft | 14 kts | 223° |
| 2026-05-08 00:58 | 47.43519 | 19.26106 | 457 ft | 7 kts | 221° |
| 2026-05-08 00:58 | 47.43527 | 19.26044 | 456 ft | 8 kts | 309° |
| 2026-05-08 00:59 | 47.43545 | 19.26014 | 457 ft | 1 kts | 311° |